sensor_id;sensor_type;location;lat;lon;timestamp;P1;durP1;ratioP1;P2;durP2;ratioP2
62479;SDS011;48526;48.846;2.322;2023-07-09T00:02:11;10.00;;;9.00;;
62479;SDS011;48526;48.846;2.322;2023-07-09T00:04:37;11.50;;;9.75;;
62479;SDS011;48526;48.846;2.322;2023-07-09T00:07:03;11.00;;;10.00;;
62479;SDS011;48526;48.846;2.322;2023-07-09T00:09:29;10.75;;;10.00;;
62479;SDS011;48526;48.846;2.322;2023-07-09T00:11:55;16.75;;;12.25;;
62479;SDS011;48526;48.846;2.322;2023-07-09T00:14:21;9.50;;;9.50;;
62479;SDS011;48526;48.846;2.322;2023-07-09T00:16:46;10.75;;;10.50;;
62479;SDS011;48526;48.846;2.322;2023-07-09T00:19:14;10.00;;;10.00;;
62479;SDS011;48526;48.846;2.322;2023-07-09T00:21:43;11.00;;;10.00;;
62479;SDS011;48526;48.846;2.322;2023-07-09T00:24:13;11.00;;;11.00;;
62479;SDS011;48526;48.846;2.322;2023-07-09T00:26:38;11.25;;;10.25;;
62479;SDS011;48526;48.846;2.322;2023-07-09T00:29:10;14.50;;;12.25;;
62479;SDS011;48526;48.846;2.322;2023-07-09T00:31:38;11.75;;;11.00;;
62479;SDS011;48526;48.846;2.322;2023-07-09T00:34:06;11.75;;;9.50;;
62479;SDS011;48526;48.846;2.322;2023-07-09T00:36:33;11.00;;;9.75;;
62479;SDS011;48526;48.846;2.322;2023-07-09T00:38:59;13.75;;;10.25;;
62479;SDS011;48526;48.846;2.322;2023-07-09T00:41:29;9.50;;;9.50;;
62479;SDS011;48526;48.846;2.322;2023-07-09T00:43:57;11.00;;;10.00;;
62479;SDS011;48526;48.846;2.322;2023-07-09T00:47:30;11.75;;;10.25;;
62479;SDS011;48526;48.846;2.322;2023-07-09T00:50:03;12.25;;;12.00;;
62479;SDS011;48526;48.846;2.322;2023-07-09T00:52:42;11.50;;;10.00;;
62479;SDS011;48526;48.846;2.322;2023-07-09T00:55:16;13.25;;;12.25;;
62479;SDS011;48526;48.846;2.322;2023-07-09T00:57:45;10.50;;;10.00;;
62479;SDS011;48526;48.846;2.322;2023-07-09T01:00:21;12.00;;;10.00;;
62479;SDS011;48526;48.846;2.322;2023-07-09T01:02:50;11.25;;;11.25;;
62479;SDS011;48526;48.846;2.322;2023-07-09T01:05:16;9.00;;;9.00;;
62479;SDS011;48526;48.846;2.322;2023-07-09T01:07:45;11.00;;;9.75;;
62479;SDS011;48526;48.846;2.322;2023-07-09T01:10:12;12.25;;;11.00;;
62479;SDS011;48526;48.846;2.322;2023-07-09T01:12:38;13.50;;;11.50;;
62479;SDS011;48526;48.846;2.322;2023-07-09T01:15:04;11.75;;;11.50;;
62479;SDS011;48526;48.846;2.322;2023-07-09T01:17:32;10.75;;;10.75;;
62479;SDS011;48526;48.846;2.322;2023-07-09T01:19:58;9.75;;;9.00;;
62479;SDS011;48526;48.846;2.322;2023-07-09T01:22:23;13.25;;;13.25;;
62479;SDS011;48526;48.846;2.322;2023-07-09T01:24:51;10.00;;;8.25;;
62479;SDS011;48526;48.846;2.322;2023-07-09T01:27:31;11.75;;;11.25;;
62479;SDS011;48526;48.846;2.322;2023-07-09T01:30:04;10.00;;;10.00;;
62479;SDS011;48526;48.846;2.322;2023-07-09T01:32:32;9.25;;;9.25;;
62479;SDS011;48526;48.846;2.322;2023-07-09T01:35:00;12.00;;;12.00;;
62479;SDS011;48526;48.846;2.322;2023-07-09T01:37:30;10.00;;;8.25;;
62479;SDS011;48526;48.846;2.322;2023-07-09T01:39:57;10.75;;;10.75;;
62479;SDS011;48526;48.846;2.322;2023-07-09T01:42:24;12.00;;;11.75;;
62479;SDS011;48526;48.846;2.322;2023-07-09T01:44:51;11.50;;;10.75;;
62479;SDS011;48526;48.846;2.322;2023-07-09T01:47:18;9.50;;;9.00;;
62479;SDS011;48526;48.846;2.322;2023-07-09T01:49:44;11.00;;;9.25;;
62479;SDS011;48526;48.846;2.322;2023-07-09T01:52:11;9.00;;;9.00;;
62479;SDS011;48526;48.846;2.322;2023-07-09T01:54:38;11.25;;;11.00;;
62479;SDS011;48526;48.846;2.322;2023-07-09T01:59:58;10.75;;;10.00;;
62479;SDS011;48526;48.846;2.322;2023-07-09T02:02:30;14.25;;;13.00;;
62479;SDS011;48526;48.846;2.322;2023-07-09T02:04:57;12.75;;;9.25;;
62479;SDS011;48526;48.846;2.322;2023-07-09T02:07:23;10.00;;;10.00;;
62479;SDS011;48526;48.846;2.322;2023-07-09T02:09:49;12.50;;;11.25;;
62479;SDS011;48526;48.846;2.322;2023-07-09T02:12:16;9.75;;;9.25;;
62479;SDS011;48526;48.846;2.322;2023-07-09T02:14:42;11.00;;;10.75;;
62479;SDS011;48526;48.846;2.322;2023-07-09T02:17:09;12.00;;;11.00;;
62479;SDS011;48526;48.846;2.322;2023-07-09T02:19:36;12.00;;;10.00;;
62479;SDS011;48526;48.846;2.322;2023-07-09T02:22:01;13.25;;;12.25;;
62479;SDS011;48526;48.846;2.322;2023-07-09T02:24:27;13.75;;;12.00;;
62479;SDS011;48526;48.846;2.322;2023-07-09T02:26:53;12.25;;;9.25;;
62479;SDS011;48526;48.846;2.322;2023-07-09T02:29:19;11.00;;;9.75;;
62479;SDS011;48526;48.846;2.322;2023-07-09T02:31:45;11.50;;;10.50;;
62479;SDS011;48526;48.846;2.322;2023-07-09T02:34:13;11.25;;;9.75;;
62479;SDS011;48526;48.846;2.322;2023-07-09T02:36:38;13.25;;;10.75;;
62479;SDS011;48526;48.846;2.322;2023-07-09T02:39:08;11.25;;;11.25;;
62479;SDS011;48526;48.846;2.322;2023-07-09T02:41:34;15.00;;;12.75;;
62479;SDS011;48526;48.846;2.322;2023-07-09T02:43:59;12.75;;;12.00;;
62479;SDS011;48526;48.846;2.322;2023-07-09T02:46:28;12.00;;;11.50;;
62479;SDS011;48526;48.846;2.322;2023-07-09T02:48:53;9.75;;;9.75;;
62479;SDS011;48526;48.846;2.322;2023-07-09T02:51:19;12.75;;;11.75;;
62479;SDS011;48526;48.846;2.322;2023-07-09T02:53:44;13.25;;;12.00;;
62479;SDS011;48526;48.846;2.322;2023-07-09T02:56:10;11.50;;;10.00;;
62479;SDS011;48526;48.846;2.322;2023-07-09T02:58:37;13.75;;;12.50;;
62479;SDS011;48526;48.846;2.322;2023-07-09T03:01:03;14.50;;;13.25;;
62479;SDS011;48526;48.846;2.322;2023-07-09T03:03:30;14.00;;;10.00;;
62479;SDS011;48526;48.846;2.322;2023-07-09T03:05:56;12.00;;;12.00;;
62479;SDS011;48526;48.846;2.322;2023-07-09T03:08:21;13.75;;;11.00;;
62479;SDS011;48526;48.846;2.322;2023-07-09T03:10:47;14.25;;;11.50;;
62479;SDS011;48526;48.846;2.322;2023-07-09T03:13:12;11.00;;;11.00;;
62479;SDS011;48526;48.846;2.322;2023-07-09T03:15:37;13.50;;;12.00;;
62479;SDS011;48526;48.846;2.322;2023-07-09T03:18:03;14.75;;;13.00;;
62479;SDS011;48526;48.846;2.322;2023-07-09T03:20:28;12.00;;;11.25;;
62479;SDS011;48526;48.846;2.322;2023-07-09T03:22:53;11.75;;;10.75;;
62479;SDS011;48526;48.846;2.322;2023-07-09T03:25:19;14.50;;;11.75;;
62479;SDS011;48526;48.846;2.322;2023-07-09T03:27:47;12.00;;;11.00;;
62479;SDS011;48526;48.846;2.322;2023-07-09T03:30:13;13.50;;;12.50;;
62479;SDS011;48526;48.846;2.322;2023-07-09T03:32:38;14.50;;;12.00;;
62479;SDS011;48526;48.846;2.322;2023-07-09T03:35:04;11.75;;;11.50;;
62479;SDS011;48526;48.846;2.322;2023-07-09T03:37:29;11.50;;;10.00;;
62479;SDS011;48526;48.846;2.322;2023-07-09T03:39:55;12.50;;;11.00;;
62479;SDS011;48526;48.846;2.322;2023-07-09T03:42:20;13.75;;;12.75;;
62479;SDS011;48526;48.846;2.322;2023-07-09T03:44:46;13.25;;;12.50;;
62479;SDS011;48526;48.846;2.322;2023-07-09T03:47:11;11.25;;;10.75;;
62479;SDS011;48526;48.846;2.322;2023-07-09T03:49:39;11.25;;;11.25;;
62479;SDS011;48526;48.846;2.322;2023-07-09T03:52:06;13.00;;;12.00;;
62479;SDS011;48526;48.846;2.322;2023-07-09T03:54:32;15.25;;;10.50;;
62479;SDS011;48526;48.846;2.322;2023-07-09T03:56:58;16.75;;;13.50;;
62479;SDS011;48526;48.846;2.322;2023-07-09T03:59:23;12.75;;;12.75;;
62479;SDS011;48526;48.846;2.322;2023-07-09T04:01:49;12.75;;;10.50;;
62479;SDS011;48526;48.846;2.322;2023-07-09T04:04:14;12.75;;;10.25;;
62479;SDS011;48526;48.846;2.322;2023-07-09T04:06:40;12.50;;;9.75;;
62479;SDS011;48526;48.846;2.322;2023-07-09T04:09:05;11.75;;;9.75;;
62479;SDS011;48526;48.846;2.322;2023-07-09T04:11:31;12.50;;;11.75;;
62479;SDS011;48526;48.846;2.322;2023-07-09T04:13:58;10.00;;;10.00;;
62479;SDS011;48526;48.846;2.322;2023-07-09T04:16:24;11.00;;;9.00;;
62479;SDS011;48526;48.846;2.322;2023-07-09T04:18:49;11.75;;;10.75;;
62479;SDS011;48526;48.846;2.322;2023-07-09T04:21:14;11.00;;;10.75;;
62479;SDS011;48526;48.846;2.322;2023-07-09T04:23:42;14.00;;;12.25;;
62479;SDS011;48526;48.846;2.322;2023-07-09T04:26:09;10.00;;;9.00;;
62479;SDS011;48526;48.846;2.322;2023-07-09T04:28:37;13.25;;;10.75;;
62479;SDS011;48526;48.846;2.322;2023-07-09T04:31:03;13.50;;;10.00;;
62479;SDS011;48526;48.846;2.322;2023-07-09T04:33:31;9.00;;;9.00;;
62479;SDS011;48526;48.846;2.322;2023-07-09T04:35:56;10.00;;;10.00;;
62479;SDS011;48526;48.846;2.322;2023-07-09T04:38:22;12.00;;;12.00;;
62479;SDS011;48526;48.846;2.322;2023-07-09T04:40:48;11.00;;;11.00;;
62479;SDS011;48526;48.846;2.322;2023-07-09T04:43:13;11.25;;;11.25;;
62479;SDS011;48526;48.846;2.322;2023-07-09T04:45:39;9.00;;;7.75;;
62479;SDS011;48526;48.846;2.322;2023-07-09T04:48:04;10.00;;;9.00;;
62479;SDS011;48526;48.846;2.322;2023-07-09T04:50:30;10.00;;;7.25;;
62479;SDS011;48526;48.846;2.322;2023-07-09T04:52:55;10.00;;;10.00;;
62479;SDS011;48526;48.846;2.322;2023-07-09T04:55:22;11.50;;;10.75;;
62479;SDS011;48526;48.846;2.322;2023-07-09T04:57:47;10.00;;;10.00;;
62479;SDS011;48526;48.846;2.322;2023-07-09T05:00:13;10.25;;;8.75;;
62479;SDS011;48526;48.846;2.322;2023-07-09T05:02:39;12.00;;;11.00;;
62479;SDS011;48526;48.846;2.322;2023-07-09T05:05:04;10.25;;;10.25;;
62479;SDS011;48526;48.846;2.322;2023-07-09T05:07:30;13.25;;;12.75;;
62479;SDS011;48526;48.846;2.322;2023-07-09T05:09:57;9.75;;;9.75;;
62479;SDS011;48526;48.846;2.322;2023-07-09T05:12:25;11.50;;;11.50;;
62479;SDS011;48526;48.846;2.322;2023-07-09T05:14:51;10.50;;;10.25;;
62479;SDS011;48526;48.846;2.322;2023-07-09T05:17:17;10.00;;;10.00;;
62479;SDS011;48526;48.846;2.322;2023-07-09T05:19:42;11.50;;;11.50;;
62479;SDS011;48526;48.846;2.322;2023-07-09T05:22:08;12.50;;;11.00;;
62479;SDS011;48526;48.846;2.322;2023-07-09T05:24:33;10.75;;;10.00;;
62479;SDS011;48526;48.846;2.322;2023-07-09T05:27:00;12.50;;;11.50;;
62479;SDS011;48526;48.846;2.322;2023-07-09T05:29:25;9.50;;;8.75;;
62479;SDS011;48526;48.846;2.322;2023-07-09T05:31:52;12.75;;;10.50;;
62479;SDS011;48526;48.846;2.322;2023-07-09T05:34:17;10.50;;;10.00;;
62479;SDS011;48526;48.846;2.322;2023-07-09T05:36:43;10.50;;;10.00;;
62479;SDS011;48526;48.846;2.322;2023-07-09T05:39:08;12.25;;;12.25;;
62479;SDS011;48526;48.846;2.322;2023-07-09T05:41:33;11.00;;;11.00;;
62479;SDS011;48526;48.846;2.322;2023-07-09T05:43:59;11.75;;;10.00;;
62479;SDS011;48526;48.846;2.322;2023-07-09T05:46:24;10.75;;;10.75;;
62479;SDS011;48526;48.846;2.322;2023-07-09T05:48:50;9.25;;;9.25;;
62479;SDS011;48526;48.846;2.322;2023-07-09T05:51:15;10.00;;;8.50;;
62479;SDS011;48526;48.846;2.322;2023-07-09T05:53:41;11.00;;;9.00;;
62479;SDS011;48526;48.846;2.322;2023-07-09T05:56:06;7.75;;;7.50;;
62479;SDS011;48526;48.846;2.322;2023-07-09T05:58:32;9.75;;;7.50;;
62479;SDS011;48526;48.846;2.322;2023-07-09T06:00:57;8.75;;;8.75;;
62479;SDS011;48526;48.846;2.322;2023-07-09T06:03:24;10.75;;;8.75;;
62479;SDS011;48526;48.846;2.322;2023-07-09T06:05:51;9.00;;;9.00;;
62479;SDS011;48526;48.846;2.322;2023-07-09T06:08:18;9.25;;;8.00;;
62479;SDS011;48526;48.846;2.322;2023-07-09T06:10:51;10.00;;;9.00;;
62479;SDS011;48526;48.846;2.322;2023-07-09T06:13:20;11.00;;;7.75;;
62479;SDS011;48526;48.846;2.322;2023-07-09T06:15:47;7.25;;;6.75;;
62479;SDS011;48526;48.846;2.322;2023-07-09T06:18:13;7.00;;;7.00;;
62479;SDS011;48526;48.846;2.322;2023-07-09T06:20:39;10.00;;;8.25;;
62479;SDS011;48526;48.846;2.322;2023-07-09T06:23:04;8.50;;;8.50;;
62479;SDS011;48526;48.846;2.322;2023-07-09T06:25:30;10.25;;;8.25;;
62479;SDS011;48526;48.846;2.322;2023-07-09T06:27:56;7.50;;;7.50;;
62479;SDS011;48526;48.846;2.322;2023-07-09T06:30:24;7.75;;;7.75;;
62479;SDS011;48526;48.846;2.322;2023-07-09T06:32:50;7.00;;;6.50;;
62479;SDS011;48526;48.846;2.322;2023-07-09T06:35:18;7.00;;;7.00;;
62479;SDS011;48526;48.846;2.322;2023-07-09T06:37:43;7.25;;;7.25;;
62479;SDS011;48526;48.846;2.322;2023-07-09T06:40:08;6.25;;;5.50;;
62479;SDS011;48526;48.846;2.322;2023-07-09T06:42:35;7.75;;;7.75;;
62479;SDS011;48526;48.846;2.322;2023-07-09T06:45:01;6.50;;;5.75;;
62479;SDS011;48526;48.846;2.322;2023-07-09T06:47:28;10.00;;;7.75;;
62479;SDS011;48526;48.846;2.322;2023-07-09T06:49:54;7.50;;;7.50;;
62479;SDS011;48526;48.846;2.322;2023-07-09T06:52:19;8.25;;;7.25;;
62479;SDS011;48526;48.846;2.322;2023-07-09T06:54:44;5.75;;;5.75;;
62479;SDS011;48526;48.846;2.322;2023-07-09T06:57:10;8.00;;;6.00;;
62479;SDS011;48526;48.846;2.322;2023-07-09T06:59:35;10.75;;;8.00;;
62479;SDS011;48526;48.846;2.322;2023-07-09T07:02:01;5.25;;;5.00;;
62479;SDS011;48526;48.846;2.322;2023-07-09T07:04:26;8.50;;;7.50;;
62479;SDS011;48526;48.846;2.322;2023-07-09T07:06:52;7.75;;;7.25;;
62479;SDS011;48526;48.846;2.322;2023-07-09T07:09:25;7.75;;;7.75;;
62479;SDS011;48526;48.846;2.322;2023-07-09T07:11:50;5.75;;;5.75;;
62479;SDS011;48526;48.846;2.322;2023-07-09T07:14:16;7.75;;;7.00;;
62479;SDS011;48526;48.846;2.322;2023-07-09T07:16:41;8.00;;;7.25;;
62479;SDS011;48526;48.846;2.322;2023-07-09T07:19:06;8.75;;;7.00;;
62479;SDS011;48526;48.846;2.322;2023-07-09T07:21:32;7.75;;;6.00;;
62479;SDS011;48526;48.846;2.322;2023-07-09T07:23:57;7.25;;;6.75;;
62479;SDS011;48526;48.846;2.322;2023-07-09T07:26:23;8.00;;;7.00;;
62479;SDS011;48526;48.846;2.322;2023-07-09T07:28:48;9.50;;;7.50;;
62479;SDS011;48526;48.846;2.322;2023-07-09T07:31:15;8.75;;;8.75;;
62479;SDS011;48526;48.846;2.322;2023-07-09T07:33:40;8.25;;;6.25;;
62479;SDS011;48526;48.846;2.322;2023-07-09T07:36:06;6.50;;;6.50;;
62479;SDS011;48526;48.846;2.322;2023-07-09T07:38:32;8.00;;;7.00;;
62479;SDS011;48526;48.846;2.322;2023-07-09T07:40:58;7.25;;;5.75;;
62479;SDS011;48526;48.846;2.322;2023-07-09T07:43:23;8.00;;;8.00;;
62479;SDS011;48526;48.846;2.322;2023-07-09T07:45:49;9.00;;;8.00;;
62479;SDS011;48526;48.846;2.322;2023-07-09T07:48:14;9.50;;;9.50;;
62479;SDS011;48526;48.846;2.322;2023-07-09T07:50:40;9.00;;;8.25;;
62479;SDS011;48526;48.846;2.322;2023-07-09T07:53:06;10.25;;;8.00;;
62479;SDS011;48526;48.846;2.322;2023-07-09T07:55:33;8.75;;;8.75;;
62479;SDS011;48526;48.846;2.322;2023-07-09T07:57:59;10.75;;;10.75;;
62479;SDS011;48526;48.846;2.322;2023-07-09T08:00:27;9.00;;;9.00;;
62479;SDS011;48526;48.846;2.322;2023-07-09T08:02:53;7.25;;;7.25;;
62479;SDS011;48526;48.846;2.322;2023-07-09T08:05:19;8.00;;;8.00;;
62479;SDS011;48526;48.846;2.322;2023-07-09T08:07:44;9.00;;;9.00;;
62479;SDS011;48526;48.846;2.322;2023-07-09T08:10:10;10.00;;;10.00;;
62479;SDS011;48526;48.846;2.322;2023-07-09T08:12:37;11.00;;;10.50;;
62479;SDS011;48526;48.846;2.322;2023-07-09T08:15:02;8.75;;;8.25;;
62479;SDS011;48526;48.846;2.322;2023-07-09T08:17:28;9.50;;;9.25;;
62479;SDS011;48526;48.846;2.322;2023-07-09T08:19:54;10.25;;;9.50;;
62479;SDS011;48526;48.846;2.322;2023-07-09T08:22:19;9.25;;;8.75;;
62479;SDS011;48526;48.846;2.322;2023-07-09T08:24:46;8.00;;;8.00;;
62479;SDS011;48526;48.846;2.322;2023-07-09T08:27:12;9.75;;;8.25;;
62479;SDS011;48526;48.846;2.322;2023-07-09T08:29:37;8.00;;;8.00;;
62479;SDS011;48526;48.846;2.322;2023-07-09T08:32:05;9.00;;;8.00;;
62479;SDS011;48526;48.846;2.322;2023-07-09T08:34:31;7.00;;;7.00;;
62479;SDS011;48526;48.846;2.322;2023-07-09T08:36:56;11.25;;;10.00;;
62479;SDS011;48526;48.846;2.322;2023-07-09T08:39:22;11.00;;;8.75;;
62479;SDS011;48526;48.846;2.322;2023-07-09T08:41:49;8.75;;;8.75;;
62479;SDS011;48526;48.846;2.322;2023-07-09T08:45:22;9.50;;;9.00;;
62479;SDS011;48526;48.846;2.322;2023-07-09T08:47:33;8.75;;;8.75;;
62479;SDS011;48526;48.846;2.322;2023-07-09T08:50:11;12.00;;;11.00;;
62479;SDS011;48526;48.846;2.322;2023-07-09T08:52:43;10.25;;;9.25;;
62479;SDS011;48526;48.846;2.322;2023-07-09T08:57:47;13.25;;;12.00;;
62479;SDS011;48526;48.846;2.322;2023-07-09T09:00:22;13.25;;;12.00;;
62479;SDS011;48526;48.846;2.322;2023-07-09T09:02:59;9.75;;;8.00;;
62479;SDS011;48526;48.846;2.322;2023-07-09T09:05:34;10.25;;;9.25;;
62479;SDS011;48526;48.846;2.322;2023-07-09T09:08:08;9.50;;;7.75;;
62479;SDS011;48526;48.846;2.322;2023-07-09T09:10:53;11.75;;;10.25;;
62479;SDS011;48526;48.846;2.322;2023-07-09T09:13:39;10.00;;;8.25;;
62479;SDS011;48526;48.846;2.322;2023-07-09T09:16:09;10.00;;;8.50;;
62479;SDS011;48526;48.846;2.322;2023-07-09T09:18:41;10.00;;;9.00;;
62479;SDS011;48526;48.846;2.322;2023-07-09T09:21:24;9.75;;;9.75;;
62479;SDS011;48526;48.846;2.322;2023-07-09T09:23:54;11.50;;;9.25;;
62479;SDS011;48526;48.846;2.322;2023-07-09T09:26:25;9.25;;;9.00;;
62479;SDS011;48526;48.846;2.322;2023-07-09T09:28:54;9.75;;;9.25;;
62479;SDS011;48526;48.846;2.322;2023-07-09T09:31:20;11.00;;;7.00;;
62479;SDS011;48526;48.846;2.322;2023-07-09T09:33:49;12.25;;;9.75;;
62479;SDS011;48526;48.846;2.322;2023-07-09T09:36:18;11.75;;;10.00;;
62479;SDS011;48526;48.846;2.322;2023-07-09T09:38:46;11.25;;;10.00;;
62479;SDS011;48526;48.846;2.322;2023-07-09T09:41:13;10.00;;;8.25;;
62479;SDS011;48526;48.846;2.322;2023-07-09T09:43:41;7.00;;;7.00;;
62479;SDS011;48526;48.846;2.322;2023-07-09T09:46:08;6.00;;;6.00;;
62479;SDS011;48526;48.846;2.322;2023-07-09T09:48:33;6.00;;;6.00;;
62479;SDS011;48526;48.846;2.322;2023-07-09T09:50:59;12.50;;;10.50;;
62479;SDS011;48526;48.846;2.322;2023-07-09T09:53:29;12.00;;;12.00;;
62479;SDS011;48526;48.846;2.322;2023-07-09T09:55:55;13.00;;;12.00;;
62479;SDS011;48526;48.846;2.322;2023-07-09T09:58:27;11.25;;;11.00;;
62479;SDS011;48526;48.846;2.322;2023-07-09T10:00:54;13.50;;;10.75;;
62479;SDS011;48526;48.846;2.322;2023-07-09T10:03:21;13.75;;;10.50;;
62479;SDS011;48526;48.846;2.322;2023-07-09T10:05:58;10.00;;;7.50;;
62479;SDS011;48526;48.846;2.322;2023-07-09T10:11:50;11.25;;;11.00;;
62479;SDS011;48526;48.846;2.322;2023-07-09T10:14:31;10.75;;;9.50;;
62479;SDS011;48526;48.846;2.322;2023-07-09T10:17:00;11.25;;;11.25;;
62479;SDS011;48526;48.846;2.322;2023-07-09T10:19:34;9.25;;;9.25;;
62479;SDS011;48526;48.846;2.322;2023-07-09T10:22:06;12.50;;;11.25;;
62479;SDS011;48526;48.846;2.322;2023-07-09T10:27:38;13.75;;;13.00;;
62479;SDS011;48526;48.846;2.322;2023-07-09T10:30:23;12.00;;;10.00;;
62479;SDS011;48526;48.846;2.322;2023-07-09T10:36:00;8.75;;;8.75;;
62479;SDS011;48526;48.846;2.322;2023-07-09T10:41:14;15.00;;;12.25;;
62479;SDS011;48526;48.846;2.322;2023-07-09T10:43:44;16.25;;;13.25;;
62479;SDS011;48526;48.846;2.322;2023-07-09T10:46:31;13.75;;;12.25;;
62479;SDS011;48526;48.846;2.322;2023-07-09T10:48:58;13.75;;;11.00;;
62479;SDS011;48526;48.846;2.322;2023-07-09T10:51:29;15.00;;;10.75;;
62479;SDS011;48526;48.846;2.322;2023-07-09T10:56:40;12.50;;;11.00;;
62479;SDS011;48526;48.846;2.322;2023-07-09T10:59:11;10.50;;;10.25;;
62479;SDS011;48526;48.846;2.322;2023-07-09T11:01:49;13.75;;;9.50;;
62479;SDS011;48526;48.846;2.322;2023-07-09T11:05:17;13.75;;;13.00;;
62479;SDS011;48526;48.846;2.322;2023-07-09T11:07:17;12.25;;;12.25;;
62479;SDS011;48526;48.846;2.322;2023-07-09T11:09:48;11.50;;;11.50;;
62479;SDS011;48526;48.846;2.322;2023-07-09T11:12:24;9.50;;;9.50;;
62479;SDS011;48526;48.846;2.322;2023-07-09T11:15:12;13.25;;;12.00;;
62479;SDS011;48526;48.846;2.322;2023-07-09T11:17:44;11.25;;;10.25;;
62479;SDS011;48526;48.846;2.322;2023-07-09T11:23:01;11.00;;;9.00;;
62479;SDS011;48526;48.846;2.322;2023-07-09T11:25:47;11.25;;;10.75;;
62479;SDS011;48526;48.846;2.322;2023-07-09T11:28:33;8.50;;;8.50;;
62479;SDS011;48526;48.846;2.322;2023-07-09T11:31:06;10.00;;;10.00;;
62479;SDS011;48526;48.846;2.322;2023-07-09T11:34:02;7.25;;;7.25;;
62479;SDS011;48526;48.846;2.322;2023-07-09T11:36:45;9.50;;;9.50;;
62479;SDS011;48526;48.846;2.322;2023-07-09T11:39:20;10.25;;;8.00;;
62479;SDS011;48526;48.846;2.322;2023-07-09T11:41:46;8.00;;;7.75;;
62479;SDS011;48526;48.846;2.322;2023-07-09T11:44:22;9.25;;;9.25;;
62479;SDS011;48526;48.846;2.322;2023-07-09T11:49:52;12.00;;;10.00;;
62479;SDS011;48526;48.846;2.322;2023-07-09T11:52:25;9.00;;;9.00;;
62479;SDS011;48526;48.846;2.322;2023-07-09T11:54:56;10.00;;;9.50;;
62479;SDS011;48526;48.846;2.322;2023-07-09T11:57:21;9.50;;;9.50;;
62479;SDS011;48526;48.846;2.322;2023-07-09T11:59:47;11.50;;;9.00;;
62479;SDS011;48526;48.846;2.322;2023-07-09T12:02:13;8.00;;;8.00;;
62479;SDS011;48526;48.846;2.322;2023-07-09T12:04:42;7.75;;;6.25;;
62479;SDS011;48526;48.846;2.322;2023-07-09T12:07:09;6.75;;;6.25;;
62479;SDS011;48526;48.846;2.322;2023-07-09T12:09:39;8.00;;;6.75;;
62479;SDS011;48526;48.846;2.322;2023-07-09T12:12:20;8.00;;;8.00;;
62479;SDS011;48526;48.846;2.322;2023-07-09T12:14:48;11.50;;;11.00;;
62479;SDS011;48526;48.846;2.322;2023-07-09T12:17:13;11.00;;;10.00;;
62479;SDS011;48526;48.846;2.322;2023-07-09T12:19:39;10.75;;;7.75;;
62479;SDS011;48526;48.846;2.322;2023-07-09T12:22:06;10.25;;;8.50;;
62479;SDS011;48526;48.846;2.322;2023-07-09T12:24:36;10.50;;;9.75;;
62479;SDS011;48526;48.846;2.322;2023-07-09T12:27:04;9.75;;;9.00;;
62479;SDS011;48526;48.846;2.322;2023-07-09T12:29:43;9.25;;;9.00;;
62479;SDS011;48526;48.846;2.322;2023-07-09T12:32:10;10.25;;;9.00;;
62479;SDS011;48526;48.846;2.322;2023-07-09T12:34:37;13.50;;;10.00;;
62479;SDS011;48526;48.846;2.322;2023-07-09T12:37:02;11.00;;;9.00;;
62479;SDS011;48526;48.846;2.322;2023-07-09T12:39:29;10.25;;;10.25;;
62479;SDS011;48526;48.846;2.322;2023-07-09T12:41:56;11.00;;;11.00;;
62479;SDS011;48526;48.846;2.322;2023-07-09T12:44:24;8.25;;;8.25;;
62479;SDS011;48526;48.846;2.322;2023-07-09T12:46:52;6.00;;;6.00;;
62479;SDS011;48526;48.846;2.322;2023-07-09T12:49:25;10.00;;;8.50;;
62479;SDS011;48526;48.846;2.322;2023-07-09T12:51:56;7.25;;;7.25;;
62479;SDS011;48526;48.846;2.322;2023-07-09T12:54:23;8.00;;;7.00;;
62479;SDS011;48526;48.846;2.322;2023-07-09T12:56:52;7.00;;;6.00;;
62479;SDS011;48526;48.846;2.322;2023-07-09T12:59:25;8.00;;;7.00;;
62479;SDS011;48526;48.846;2.322;2023-07-09T13:02:37;4.50;;;4.50;;
62479;SDS011;48526;48.846;2.322;2023-07-09T13:04:59;9.50;;;8.00;;
62479;SDS011;48526;48.846;2.322;2023-07-09T13:07:30;7.25;;;6.25;;
62479;SDS011;48526;48.846;2.322;2023-07-09T13:10:17;6.25;;;4.75;;
62479;SDS011;48526;48.846;2.322;2023-07-09T13:13:03;5.50;;;5.50;;
62479;SDS011;48526;48.846;2.322;2023-07-09T13:18:03;5.00;;;5.00;;
62479;SDS011;48526;48.846;2.322;2023-07-09T13:20:30;3.75;;;3.25;;
62479;SDS011;48526;48.846;2.322;2023-07-09T13:23:00;6.50;;;5.00;;
62479;SDS011;48526;48.846;2.322;2023-07-09T13:25:27;7.00;;;7.00;;
62479;SDS011;48526;48.846;2.322;2023-07-09T13:27:53;6.25;;;6.25;;
62479;SDS011;48526;48.846;2.322;2023-07-09T13:30:18;6.25;;;6.00;;
62479;SDS011;48526;48.846;2.322;2023-07-09T13:32:45;5.75;;;5.75;;
62479;SDS011;48526;48.846;2.322;2023-07-09T13:35:17;7.00;;;5.25;;
62479;SDS011;48526;48.846;2.322;2023-07-09T13:37:45;8.25;;;7.25;;
62479;SDS011;48526;48.846;2.322;2023-07-09T13:40:14;5.50;;;5.00;;
62479;SDS011;48526;48.846;2.322;2023-07-09T13:42:40;5.75;;;5.75;;
62479;SDS011;48526;48.846;2.322;2023-07-09T13:45:16;5.50;;;5.50;;
62479;SDS011;48526;48.846;2.322;2023-07-09T13:47:43;10.25;;;10.00;;
62479;SDS011;48526;48.846;2.322;2023-07-09T13:50:09;6.00;;;6.00;;
62479;SDS011;48526;48.846;2.322;2023-07-09T13:52:34;9.25;;;9.25;;
62479;SDS011;48526;48.846;2.322;2023-07-09T13:55:00;5.50;;;5.25;;
62479;SDS011;48526;48.846;2.322;2023-07-09T13:57:25;6.25;;;5.00;;
62479;SDS011;48526;48.846;2.322;2023-07-09T13:59:52;7.25;;;7.25;;
62479;SDS011;48526;48.846;2.322;2023-07-09T14:02:21;6.25;;;6.25;;
62479;SDS011;48526;48.846;2.322;2023-07-09T14:04:48;6.75;;;6.00;;
62479;SDS011;48526;48.846;2.322;2023-07-09T14:07:22;7.25;;;4.75;;
62479;SDS011;48526;48.846;2.322;2023-07-09T14:09:51;6.00;;;5.50;;
62479;SDS011;48526;48.846;2.322;2023-07-09T14:12:16;4.25;;;4.25;;
62479;SDS011;48526;48.846;2.322;2023-07-09T14:14:42;6.75;;;5.75;;
62479;SDS011;48526;48.846;2.322;2023-07-09T14:17:11;10.75;;;6.50;;
62479;SDS011;48526;48.846;2.322;2023-07-09T14:19:37;6.75;;;5.00;;
62479;SDS011;48526;48.846;2.322;2023-07-09T14:22:02;7.75;;;7.75;;
62479;SDS011;48526;48.846;2.322;2023-07-09T14:24:43;4.25;;;4.00;;
62479;SDS011;48526;48.846;2.322;2023-07-09T14:27:08;6.25;;;6.25;;
62479;SDS011;48526;48.846;2.322;2023-07-09T14:29:34;8.00;;;7.00;;
62479;SDS011;48526;48.846;2.322;2023-07-09T14:31:59;7.00;;;6.00;;
62479;SDS011;48526;48.846;2.322;2023-07-09T14:34:28;5.00;;;5.00;;
62479;SDS011;48526;48.846;2.322;2023-07-09T14:36:55;4.50;;;4.50;;
62479;SDS011;48526;48.846;2.322;2023-07-09T14:39:22;8.00;;;7.00;;
62479;SDS011;48526;48.846;2.322;2023-07-09T14:41:48;4.75;;;4.75;;
62479;SDS011;48526;48.846;2.322;2023-07-09T14:44:30;5.75;;;4.50;;
62479;SDS011;48526;48.846;2.322;2023-07-09T14:46:57;5.25;;;4.50;;
62479;SDS011;48526;48.846;2.322;2023-07-09T14:49:24;5.25;;;5.25;;
62479;SDS011;48526;48.846;2.322;2023-07-09T14:51:50;7.00;;;5.75;;
62479;SDS011;48526;48.846;2.322;2023-07-09T14:54:23;7.00;;;6.25;;
62479;SDS011;48526;48.846;2.322;2023-07-09T14:56:53;5.00;;;5.00;;
62479;SDS011;48526;48.846;2.322;2023-07-09T14:59:19;7.00;;;7.00;;
62479;SDS011;48526;48.846;2.322;2023-07-09T15:01:44;7.25;;;5.00;;
62479;SDS011;48526;48.846;2.322;2023-07-09T15:04:27;4.75;;;4.75;;
62479;SDS011;48526;48.846;2.322;2023-07-09T15:06:55;5.25;;;4.25;;
62479;SDS011;48526;48.846;2.322;2023-07-09T15:09:22;6.00;;;5.00;;
62479;SDS011;48526;48.846;2.322;2023-07-09T15:11:52;3.00;;;3.00;;
62479;SDS011;48526;48.846;2.322;2023-07-09T15:14:19;3.50;;;2.25;;